Nearby METAR Reports

 

LIBG - Grottaglie(Civ/A, Italy
Distance from station: KO 13km
Päivitetty: 28/11/2022 19:50
NOT Current
Selkeätä
Selkeätä
 Tuulen suunta varies
Tuuli: varies 2 km/h
Lämpötila: 7°C
Kastepiste: 4°C
Kosteus: 81%
Ilmanpaine: 1015 hPa
Yhteenveto: Selkeätä
Visibility: greater than 10 km
2022/11/28 18:50 LIBG 281850Z VRB01KT CAVOK 07/04 Q1015
LIBH - Marina Di Ginosa, Italy
Distance from station: L 33km
Päivitetty: 28/11/2022 23:55
Selkeätä
Selkeätä
 Tuulen suunta LU
Tuuli: LU 13 km/h
Lämpötila: 8°C
Wind Chill: 6°C
Kastepiste: 7°C
Kosteus: 93%
Ilmanpaine: 1015 hPa
Yhteenveto: Selkeätä
Visibility: greater than 10 km
2022/11/28 22:55 LIBH 282255Z 32007KT CAVOK 08/07 Q1015 RMK SCT FEW070 SCT100 QUK / QUL / VIS MAR 20 KM VIS MIN 9999
 
LIBV - Gioia Del Colle, Italy
Distance from station: LU 45km
Päivitetty: 28/11/2022 23:55
Puolipilvistä
Puolipilvistä
 Tuulen suunta LLU
Tuuli: LLU 4 km/h
Lämpötila: 5°C
Kastepiste: 5°C
Kosteus: 100%
Ilmanpaine: 1014 hPa
Clouds: Puolipilvistä
Visibility: 8 km
Cloud details: Puolipilvistä 1524 m
2022/11/28 22:55 LIBV 282255Z 30002KT 8000 SCT050 05/05 Q1014
LIBR - Brindisi/Casale, Italy
Distance from station: IKO 62km
Päivitetty: 29/11/2022 00:50
Selkeätä
Selkeätä
 Tuulen suunta P
Tuuli: P 7 km/h
Lämpötila: 12°C
Kastepiste: 5°C
Kosteus: 63%
Ilmanpaine: 1014 hPa
Yhteenveto: Selkeätä
Visibility: greater than 10 km
2022/11/28 23:50 LIBR 282350Z 35004KT CAVOK 12/05 Q1014
 
LIBN - Lecce (it-Afb), Italy
Distance from station: IKA 79km
Päivitetty: 28/11/2022 23:55
Selkeätä
Selkeätä
 Tuulen suunta KA
Tuuli: KA 2 km/h
Lämpötila: 4°C
Kastepiste: 4°C
Kosteus: 100%
Ilmanpaine: 1015 hPa
Yhteenveto: Selkeätä
Visibility: greater than 10 km
2022/11/28 22:55 LIBN 282255Z 14001KT CAVOK 04/04 Q1015
LIBD - Bari/Palese Macc, Italy
Distance from station: PLU 85km
Päivitetty: 29/11/2022 00:50
Selkeätä
Selkeätä
 Tuulen suunta LO
Tuuli: LO 9 km/h
Lämpötila: 7°C
Wind Chill: 6°C
Kastepiste: 6°C
Kosteus: 93%
Ilmanpaine: 1014 hPa
Yhteenveto: Selkeätä
Visibility: greater than 10 km
2022/11/28 23:50 LIBD 282350Z 22005KT CAVOK 07/06 Q1014